createdAt,value
2019-05-23T00:00:41.716Z,41.41
2019-05-23T00:01:41.902Z,40.12
2019-05-23T00:02:42.119Z,39.96
2019-05-23T00:03:42.333Z,42.22
2019-05-23T00:04:42.525Z,40.28
2019-05-23T00:05:42.726Z,40.28
2019-05-23T00:06:42.906Z,40.44
2019-05-23T00:07:43.138Z,43.34
2019-05-23T00:08:43.328Z,48.50
2019-05-23T00:09:43.536Z,43.99
2019-05-23T00:10:43.771Z,45.12
2019-05-23T00:11:43.887Z,40.93
2019-05-23T00:12:44.014Z,44.15
2019-05-23T00:13:44.186Z,40.61
2019-05-23T00:14:44.350Z,41.25
2019-05-23T00:15:44.546Z,40.77
2019-05-23T00:16:44.729Z,41.57
2019-05-23T00:17:44.935Z,40.61
2019-05-23T00:18:45.112Z,40.44
2019-05-23T00:19:45.297Z,45.28
2019-05-23T00:20:45.495Z,45.60
2019-05-23T00:21:45.670Z,40.28
2019-05-23T00:22:45.900Z,40.28
2019-05-23T00:23:46.084Z,41.57
2019-05-23T00:24:46.268Z,40.44
2019-05-23T00:25:46.445Z,39.64
2019-05-23T00:26:46.635Z,40.44
2019-05-23T00:27:46.825Z,43.18
2019-05-23T00:28:47.034Z,41.73
2019-05-23T00:29:47.189Z,43.51
2019-05-23T00:30:47.373Z,40.44
2019-05-23T00:31:47.519Z,45.12
2019-05-23T00:32:47.728Z,44.15
2019-05-23T00:33:47.934Z,41.57
2019-05-23T00:34:48.110Z,39.96
2019-05-23T00:35:48.299Z,40.61
2019-05-23T00:36:48.503Z,41.41
2019-05-23T00:37:48.714Z,43.99
2019-05-23T00:38:48.922Z,40.28
2019-05-23T00:39:49.118Z,41.41
2019-05-23T00:40:49.307Z,43.51
2019-05-23T00:41:49.548Z,47.53
2019-05-23T00:42:49.748Z,47.37
2019-05-23T00:43:49.948Z,40.28
2019-05-23T00:44:50.160Z,45.92
2019-05-23T00:45:50.348Z,49.15
2019-05-23T00:46:50.617Z,40.77
2019-05-23T00:47:50.786Z,40.28
2019-05-23T00:48:50.999Z,41.09
2019-05-23T00:49:51.188Z,47.70
2019-05-23T00:50:51.355Z,47.70
2019-05-23T00:51:51.538Z,46.89
2019-05-23T00:52:51.709Z,42.54
2019-05-23T00:53:51.863Z,41.73
2019-05-23T00:54:52.036Z,46.41
2019-05-23T00:55:52.211Z,43.67
2019-05-23T00:56:52.388Z,39.96
2019-05-23T00:57:52.555Z,41.89
2019-05-23T00:58:52.707Z,44.47
2019-05-23T00:59:52.858Z,41.89
2019-05-23T01:00:53.051Z,41.41
2019-05-23T01:01:53.202Z,41.25
2019-05-23T01:02:53.380Z,48.66
2019-05-23T01:03:53.518Z,41.09
2019-05-23T01:04:53.685Z,45.28
2019-05-23T01:05:53.844Z,43.02
2019-05-23T01:06:53.990Z,41.25
2019-05-23T01:07:54.147Z,41.41
2019-05-23T01:08:54.321Z,40.44
2019-05-23T01:09:54.489Z,41.09
2019-05-23T01:10:54.677Z,41.57
2019-05-23T01:11:54.840Z,40.77
2019-05-23T01:12:55.015Z,40.61
2019-05-23T01:13:55.156Z,40.61
2019-05-23T01:14:55.302Z,40.44
2019-05-23T01:15:55.525Z,39.96
2019-05-23T01:16:55.673Z,40.93
2019-05-23T01:17:55.822Z,41.25
2019-05-23T01:18:55.989Z,41.09
2019-05-23T01:19:56.140Z,47.37
2019-05-23T01:20:56.337Z,42.70
2019-05-23T01:21:56.535Z,49.31
2019-05-23T01:22:56.694Z,41.09
2019-05-23T01:23:57.848Z,40.61
2019-05-23T01:24:57.094Z,40.93
2019-05-23T01:25:57.280Z,47.37
2019-05-23T01:26:57.464Z,45.12
2019-05-23T01:27:57.612Z,43.34
2019-05-23T01:28:57.785Z,50.43
2019-05-23T01:29:57.958Z,43.67
2019-05-23T01:30:58.164Z,47.86
2019-05-23T01:31:58.304Z,49.15
2019-05-23T01:32:58.471Z,43.99
2019-05-23T01:33:58.625Z,45.44
2019-05-23T01:34:58.780Z,45.28
2019-05-23T01:35:58.952Z,43.67
2019-05-23T01:36:59.120Z,43.18
2019-05-23T01:37:59.372Z,43.34
2019-05-23T01:38:59.524Z,42.54
2019-05-23T01:39:59.685Z,41.25
2019-05-23T01:40:59.845Z,49.63
2019-05-23T01:42:00.018Z,41.41
2019-05-23T01:43:00.190Z,43.34
2019-05-23T01:44:00.332Z,42.06
2019-05-23T01:45:00.468Z,41.41
2019-05-23T01:46:00.595Z,42.38
2019-05-23T01:47:00.749Z,41.41
2019-05-23T01:48:00.883Z,42.22
2019-05-23T01:49:01.043Z,42.38
2019-05-23T01:50:01.161Z,41.25
2019-05-23T01:51:01.401Z,44.47
2019-05-23T01:52:01.553Z,40.61
2019-05-23T01:53:01.693Z,41.73
2019-05-23T01:54:01.864Z,41.25
2019-05-23T01:55:02.000Z,41.73
2019-05-23T01:56:02.151Z,44.96
2019-05-23T01:57:02.357Z,42.86
2019-05-23T01:58:02.530Z,40.28
2019-05-23T01:59:02.686Z,41.73
2019-05-23T02:00:10.060Z,44.31
2019-05-23T02:01:04.961Z,43.34
2019-05-23T02:02:03.199Z,48.66
2019-05-23T02:03:03.342Z,45.28
2019-05-23T02:04:03.527Z,45.76
2019-05-23T02:05:03.676Z,42.06
2019-05-23T02:06:03.865Z,49.31
2019-05-23T02:07:04.029Z,49.15
2019-05-23T02:08:04.291Z,42.86
2019-05-23T02:09:04.469Z,50.60
2019-05-23T02:10:04.697Z,53.82
2019-05-23T02:11:04.788Z,44.96
2019-05-23T02:12:04.951Z,43.99
2019-05-23T02:13:05.134Z,41.25
2019-05-23T02:14:05.346Z,45.60
2019-05-23T02:15:05.521Z,77.02
2019-05-23T02:16:05.711Z,51.88
2019-05-23T02:17:05.873Z,51.24
2019-05-23T02:18:06.047Z,65.90
2019-05-23T02:19:06.244Z,53.33
2019-05-23T02:20:06.426Z,58.01
2019-05-23T02:21:06.612Z,51.40
2019-05-23T02:22:06.833Z,49.15
2019-05-23T02:23:06.986Z,52.37
2019-05-23T02:24:07.175Z,52.21
2019-05-23T02:25:07.429Z,66.23
2019-05-23T02:26:07.613Z,70.58
2019-05-23T02:27:07.812Z,59.30
2019-05-23T02:28:07.999Z,54.46
2019-05-23T02:29:08.214Z,66.39
2019-05-23T02:30:29.911Z,69.29
2019-05-23T02:31:09.573Z,68.64
2019-05-23T02:32:08.701Z,67.19
2019-05-23T02:33:08.890Z,69.45
2019-05-23T02:34:09.079Z,67.03
2019-05-23T02:35:09.281Z,69.29
2019-05-23T02:36:09.439Z,69.13
2019-05-23T02:37:09.625Z,67.68
2019-05-23T02:38:09.787Z,71.06
2019-05-23T02:39:09.953Z,71.06
2019-05-23T02:40:10.167Z,66.87
2019-05-23T02:41:10.335Z,68.48
2019-05-23T02:42:10.516Z,65.58
2019-05-23T02:43:10.666Z,67.03
2019-05-23T02:44:10.879Z,62.04
2019-05-23T02:45:11.042Z,67.35
2019-05-23T02:46:11.202Z,71.54
2019-05-23T02:47:11.382Z,72.03
2019-05-23T02:48:11.550Z,68.16
2019-05-23T02:49:11.728Z,67.84
2019-05-23T02:50:11.869Z,69.13
2019-05-23T02:51:12.021Z,69.77
2019-05-23T02:52:12.214Z,68.16
2019-05-23T02:53:12.409Z,63.97
2019-05-23T02:54:12.594Z,67.03
2019-05-23T02:55:12.772Z,68.80
2019-05-23T02:56:12.974Z,72.03
2019-05-23T02:57:13.151Z,71.54
2019-05-23T02:58:13.315Z,64.61
2019-05-23T02:59:13.484Z,67.03
2019-05-23T03:00:13.668Z,66.23
2019-05-23T03:01:13.866Z,67.03
2019-05-23T03:02:14.025Z,68.32
2019-05-23T03:03:14.178Z,66.55
2019-05-23T03:04:14.345Z,68.96
2019-05-23T03:05:14.505Z,95.87
2019-05-23T03:06:14.682Z,68.64
2019-05-23T03:07:14.835Z,66.87
2019-05-23T03:08:14.987Z,65.74
2019-05-23T03:09:15.193Z,65.58
2019-05-23T03:10:15.390Z,69.13
2019-05-23T03:11:15.549Z,67.03
2019-05-23T03:12:15.706Z,65.90
2019-05-23T03:13:15.890Z,65.58
2019-05-23T03:14:16.077Z,74.60
2019-05-23T03:15:16.252Z,63.00
2019-05-23T03:16:16.472Z,72.99
2019-05-23T03:17:16.688Z,66.87
2019-05-23T03:18:16.901Z,63.49
2019-05-23T03:19:17.090Z,54.14
2019-05-23T03:20:17.287Z,73.96
2019-05-23T03:21:17.492Z,62.36
2019-05-23T03:22:17.715Z,66.39
2019-05-23T03:23:17.889Z,66.23
2019-05-23T03:24:18.056Z,66.23
2019-05-23T03:25:18.219Z,66.55
2019-05-23T03:26:18.405Z,71.87
2019-05-23T03:27:18.587Z,63.81
2019-05-23T03:28:18.746Z,68.80
2019-05-23T03:29:18.895Z,60.59
2019-05-23T03:30:19.042Z,73.32
2019-05-23T03:31:30.056Z,61.07
2019-05-23T03:32:21.447Z,72.83
2019-05-23T03:33:19.594Z,62.36
2019-05-23T03:34:19.699Z,62.36
2019-05-23T03:35:19.901Z,70.58
2019-05-23T03:36:20.067Z,70.74
2019-05-23T03:37:20.217Z,66.55
2019-05-23T03:38:20.375Z,61.23
2019-05-23T03:39:20.509Z,61.87
2019-05-23T03:40:20.757Z,60.91
2019-05-23T03:41:20.874Z,72.35
2019-05-23T03:42:20.997Z,75.89
2019-05-23T03:43:21.173Z,65.42
2019-05-23T03:44:21.317Z,71.87
2019-05-23T03:45:21.430Z,49.63
2019-05-23T03:46:21.673Z,61.87
2019-05-23T03:47:21.919Z,60.59
2019-05-23T03:48:22.165Z,70.74
2019-05-23T03:49:22.346Z,74.44
2019-05-23T03:50:22.508Z,59.78
2019-05-23T03:51:22.646Z,60.59
2019-05-23T03:52:22.797Z,73.32
2019-05-23T03:53:22.966Z,67.51
2019-05-23T03:54:23.125Z,60.91
2019-05-23T03:55:23.253Z,68.00
2019-05-23T03:56:23.381Z,67.84
2019-05-23T03:57:25.840Z,75.89
2019-05-23T03:58:24.702Z,62.04
2019-05-23T03:59:23.964Z,68.00
2019-05-23T04:00:24.121Z,59.94
2019-05-23T04:01:24.287Z,72.03
2019-05-23T04:02:24.449Z,64.94
2019-05-23T04:03:24.641Z,70.58
2019-05-23T04:04:24.812Z,66.87
2019-05-23T04:05:24.985Z,72.83
2019-05-23T04:06:25.137Z,74.44
2019-05-23T04:07:25.282Z,72.99
2019-05-23T04:08:25.420Z,70.90
2019-05-23T04:09:25.597Z,72.35
2019-05-23T04:10:25.765Z,67.03
2019-05-23T04:11:25.897Z,77.50
2019-05-23T04:12:26.025Z,71.87
2019-05-23T04:13:26.159Z,62.36
2019-05-23T04:14:26.294Z,70.25
2019-05-23T04:15:26.435Z,75.57
2019-05-23T04:16:30.518Z,75.89
2019-05-23T04:17:27.742Z,67.84
2019-05-23T04:18:26.987Z,68.00
2019-05-23T04:19:27.123Z,65.10
2019-05-23T04:20:27.308Z,73.80
2019-05-23T04:21:27.444Z,68.64
2019-05-23T04:22:27.590Z,72.99
2019-05-23T04:23:27.720Z,67.35
2019-05-23T04:24:27.857Z,51.72
2019-05-23T04:25:28.019Z,76.86
2019-05-23T04:26:29.187Z,70.25
2019-05-23T04:27:28.333Z,60.91
2019-05-23T04:28:28.506Z,78.15
2019-05-23T04:29:28.657Z,72.03
2019-05-23T04:30:28.822Z,74.60
2019-05-23T04:31:29.021Z,74.60
2019-05-23T04:32:29.184Z,69.61
2019-05-23T04:33:29.329Z,73.32
2019-05-23T04:34:29.491Z,69.77
2019-05-23T04:35:29.631Z,56.24
2019-05-23T04:36:29.910Z,58.81
2019-05-23T04:37:29.939Z,72.83
2019-05-23T04:38:30.094Z,56.07
2019-05-23T04:39:30.240Z,66.71
2019-05-23T04:40:30.427Z,59.94
2019-05-23T04:41:30.609Z,53.17
2019-05-23T04:42:30.779Z,52.69
2019-05-23T04:43:30.965Z,65.58
2019-05-23T04:44:31.145Z,72.67
2019-05-23T04:45:31.314Z,72.51
2019-05-23T04:46:31.525Z,76.86
2019-05-23T04:47:31.699Z,72.51
2019-05-23T04:48:31.863Z,70.58
2019-05-23T04:49:32.039Z,64.45
2019-05-23T04:50:32.205Z,75.41
2019-05-23T04:51:32.417Z,64.61
2019-05-23T04:52:32.595Z,67.03
2019-05-23T04:53:32.798Z,71.54
2019-05-23T04:54:32.976Z,80.57
2019-05-23T04:55:33.157Z,72.35
2019-05-23T04:56:33.395Z,75.89
2019-05-23T04:57:33.443Z,59.62
2019-05-23T04:58:33.621Z,69.45
2019-05-23T04:59:33.812Z,59.14
2019-05-23T05:00:33.974Z,71.06
2019-05-23T05:01:34.182Z,67.68
2019-05-23T05:02:34.375Z,72.51
2019-05-23T05:03:34.541Z,69.45
2019-05-23T05:04:34.723Z,68.96
2019-05-23T05:05:34.890Z,64.13
2019-05-23T05:06:35.050Z,68.32
2019-05-23T05:07:35.212Z,60.91
2019-05-23T05:08:35.405Z,68.32
2019-05-23T05:09:42.543Z,74.44
2019-05-23T05:10:35.813Z,73.64
2019-05-23T05:11:35.995Z,74.44
2019-05-23T05:12:36.174Z,72.99
2019-05-23T05:13:36.357Z,70.25
2019-05-23T05:14:36.562Z,72.35
2019-05-23T05:15:36.719Z,73.64
2019-05-23T05:16:36.900Z,71.06
2019-05-23T05:17:37.117Z,67.84
2019-05-23T05:18:37.268Z,74.77
2019-05-23T05:19:37.459Z,59.46
2019-05-23T05:20:37.645Z,56.56
2019-05-23T05:21:37.780Z,70.09
2019-05-23T05:22:37.983Z,65.10
2019-05-23T05:23:38.231Z,68.32
2019-05-23T05:24:40.184Z,76.38
2019-05-23T05:25:39.537Z,73.32
2019-05-23T05:26:38.707Z,58.65
2019-05-23T05:27:38.874Z,70.42
2019-05-23T05:28:39.062Z,66.55
2019-05-23T05:29:39.240Z,72.83
2019-05-23T05:30:39.449Z,71.87
2019-05-23T05:31:40.626Z,83.95
2019-05-23T05:32:44.913Z,69.61
2019-05-23T05:33:41.935Z,70.25
2019-05-23T05:34:40.092Z,72.19
2019-05-23T05:35:40.256Z,74.77
2019-05-23T05:36:40.443Z,67.51
2019-05-23T05:37:40.618Z,75.73
2019-05-23T05:38:40.757Z,72.03
2019-05-23T05:39:41.021Z,72.03
2019-05-23T05:40:41.065Z,72.99
2019-05-23T05:41:41.196Z,70.58
2019-05-23T05:42:41.445Z,69.61
2019-05-23T05:43:41.615Z,74.28
2019-05-23T05:44:41.818Z,71.87
2019-05-23T05:45:42.008Z,73.64
2019-05-23T05:46:42.153Z,79.92
2019-05-23T05:47:42.312Z,76.22
2019-05-23T05:48:42.548Z,60.10
2019-05-23T05:49:42.679Z,57.52
2019-05-23T05:50:42.738Z,70.42
2019-05-23T05:51:42.992Z,75.09
2019-05-23T05:52:43.061Z,79.76
2019-05-23T05:53:43.256Z,73.15
2019-05-23T05:54:43.466Z,65.90
2019-05-23T05:55:43.658Z,67.84
2019-05-23T05:56:43.826Z,73.96
2019-05-23T05:57:44.006Z,70.58
2019-05-23T05:58:44.234Z,69.77
2019-05-23T05:59:44.422Z,66.71
2019-05-23T06:00:44.603Z,76.38
2019-05-23T06:01:44.769Z,73.48
2019-05-23T06:03:02.806Z,76.70
2019-05-23T06:03:47.123Z,73.15
2019-05-23T06:04:45.268Z,73.96
2019-05-23T06:05:45.468Z,68.80
2019-05-23T06:06:45.663Z,76.05
2019-05-23T06:07:45.949Z,71.38
2019-05-23T06:08:47.113Z,65.26
2019-05-23T06:09:46.304Z,71.54
2019-05-23T06:10:46.547Z,78.15
2019-05-23T06:11:46.773Z,73.96
2019-05-23T06:12:46.851Z,71.54
2019-05-23T06:13:47.074Z,71.87
2019-05-23T06:14:47.248Z,68.64
2019-05-23T06:15:47.461Z,74.93
2019-05-23T06:16:47.669Z,70.09
2019-05-23T06:17:47.888Z,55.27
2019-05-23T06:18:48.071Z,69.61
2019-05-23T06:19:48.278Z,75.89
2019-05-23T06:20:49.414Z,60.91
2019-05-23T06:21:48.602Z,72.83
2019-05-23T06:22:48.797Z,71.70
2019-05-23T06:23:49.000Z,62.20
2019-05-23T06:24:53.693Z,57.69
2019-05-23T06:25:51.397Z,70.25
2019-05-23T06:26:49.583Z,73.15
2019-05-23T06:27:49.682Z,73.64
2019-05-23T06:28:49.863Z,71.22
2019-05-23T06:29:50.102Z,88.62
2019-05-23T06:30:50.169Z,73.80
2019-05-23T06:31:50.416Z,82.66
2019-05-23T06:32:50.492Z,76.22
2019-05-23T06:33:50.692Z,71.22
2019-05-23T06:34:50.878Z,72.35
2019-05-23T06:35:51.097Z,71.06
2019-05-23T06:36:51.339Z,72.67
2019-05-23T06:37:51.577Z,76.86
2019-05-23T06:38:51.678Z,70.58
2019-05-23T06:39:51.885Z,71.38
2019-05-23T06:40:52.079Z,72.03
2019-05-23T06:41:52.269Z,73.48
2019-05-23T06:42:52.452Z,76.38
2019-05-23T06:43:52.621Z,65.74
2019-05-23T06:44:52.785Z,72.83
2019-05-23T06:45:52.986Z,67.35
2019-05-23T06:46:53.196Z,73.15
2019-05-23T06:47:53.355Z,64.45
2019-05-23T06:48:53.580Z,69.61
2019-05-23T06:49:53.738Z,72.67
2019-05-23T06:50:53.921Z,65.74
2019-05-23T06:51:54.178Z,66.23
2019-05-23T06:52:54.337Z,72.99
2019-05-23T06:53:54.472Z,69.93
2019-05-23T06:54:54.631Z,75.25
2019-05-23T06:55:54.787Z,71.22
2019-05-23T06:56:54.977Z,74.93
2019-05-23T06:57:55.199Z,72.99
2019-05-23T06:58:55.392Z,73.80
2019-05-23T06:59:55.554Z,63.81
2019-05-23T07:00:55.745Z,68.96
2019-05-23T07:01:55.963Z,72.03
2019-05-23T07:02:56.155Z,72.35
2019-05-23T07:03:56.399Z,65.74
2019-05-23T07:04:56.465Z,72.19
2019-05-23T07:05:56.644Z,71.54
2019-05-23T07:06:56.832Z,71.06
2019-05-23T07:07:57.085Z,70.74
2019-05-23T07:08:57.227Z,60.91
2019-05-23T07:09:57.339Z,73.15
2019-05-23T07:10:57.462Z,63.33
2019-05-23T07:11:57.625Z,72.67
2019-05-23T07:12:57.845Z,73.80
2019-05-23T07:13:57.958Z,75.41
2019-05-23T07:14:58.176Z,69.45
2019-05-23T07:15:58.411Z,71.87
2019-05-23T07:16:58.629Z,71.38
2019-05-23T07:17:58.828Z,73.15
2019-05-23T07:18:59.042Z,76.70
2019-05-23T07:19:59.257Z,78.63
2019-05-23T07:20:59.481Z,69.93
2019-05-23T07:21:59.704Z,74.77
2019-05-23T07:22:59.901Z,69.13
2019-05-23T07:24:00.092Z,75.09
2019-05-23T07:25:00.295Z,69.77
2019-05-23T07:26:00.509Z,69.45
2019-05-23T07:27:00.707Z,62.68
2019-05-23T07:28:00.916Z,53.82
2019-05-23T07:29:01.138Z,71.06
2019-05-23T07:30:01.407Z,58.49
2019-05-23T07:31:01.526Z,70.58
2019-05-23T07:32:01.725Z,68.16
2019-05-23T07:33:01.919Z,67.19
2019-05-23T07:34:02.822Z,71.38
2019-05-23T07:35:03.295Z,68.80
2019-05-23T07:36:02.480Z,72.19
2019-05-23T07:37:02.742Z,73.15
2019-05-23T07:38:02.887Z,66.39
2019-05-23T07:39:02.976Z,62.68
2019-05-23T07:40:03.190Z,67.68
2019-05-23T07:41:03.418Z,59.14
2019-05-23T07:42:03.682Z,68.64
2019-05-23T07:43:03.775Z,68.16
2019-05-23T07:44:03.996Z,73.15
2019-05-23T07:45:04.111Z,69.93
2019-05-23T07:46:04.323Z,69.61
2019-05-23T07:47:04.511Z,66.71
2019-05-23T07:48:04.714Z,59.78
2019-05-23T07:49:04.983Z,56.24
2019-05-23T07:50:05.108Z,72.19
2019-05-23T07:51:05.305Z,68.96
2019-05-23T07:52:05.403Z,66.71
2019-05-23T07:53:05.575Z,67.84
2019-05-23T07:54:05.821Z,77.34
2019-05-23T07:55:06.039Z,75.41
2019-05-23T07:56:06.312Z,68.32
2019-05-23T07:57:06.343Z,70.58
2019-05-23T07:58:06.530Z,76.22
2019-05-23T07:59:06.721Z,66.39
2019-05-23T08:00:06.886Z,69.61
2019-05-23T08:01:07.235Z,70.42
2019-05-23T08:02:07.314Z,68.16
2019-05-23T08:03:07.544Z,74.44
2019-05-23T08:04:20.394Z,65.90
2019-05-23T08:05:09.826Z,71.38
2019-05-23T08:06:08.012Z,63.16
2019-05-23T08:07:08.200Z,73.80
2019-05-23T08:08:08.421Z,61.87
2019-05-23T08:09:08.608Z,70.90
2019-05-23T08:10:08.773Z,75.41
2019-05-23T08:11:08.988Z,64.45
2019-05-23T08:12:09.195Z,59.30
2019-05-23T08:13:09.525Z,70.74
2019-05-23T08:14:12.023Z,78.15
2019-05-23T08:15:10.811Z,67.03
2019-05-23T08:16:09.965Z,66.39
2019-05-23T08:17:10.205Z,69.77
2019-05-23T08:18:10.395Z,65.42
2019-05-23T08:19:10.578Z,72.19
2019-05-23T08:20:10.771Z,78.47
2019-05-23T08:21:10.953Z,63.33
2019-05-23T08:22:11.130Z,69.29
2019-05-23T08:23:11.342Z,64.78
2019-05-23T08:24:11.521Z,69.45
2019-05-23T08:25:11.682Z,69.93
2019-05-23T08:26:11.874Z,58.49
2019-05-23T08:27:12.068Z,71.70
2019-05-23T08:28:12.304Z,62.84
2019-05-23T08:29:25.374Z,73.48
2019-05-23T08:30:14.758Z,61.87
2019-05-23T08:31:12.866Z,68.48
2019-05-23T08:32:13.079Z,71.54
2019-05-23T08:33:13.263Z,69.93
2019-05-23T08:34:13.422Z,71.06
2019-05-23T08:35:17.694Z,66.23
2019-05-23T08:36:14.718Z,69.29
2019-05-23T08:37:14.191Z,67.84
2019-05-23T08:38:14.052Z,64.45
2019-05-23T08:39:14.206Z,46.25
2019-05-23T08:40:14.443Z,68.48
2019-05-23T08:41:14.598Z,61.71
2019-05-23T08:42:14.720Z,68.16
2019-05-23T08:43:14.945Z,65.90
2019-05-23T08:44:15.090Z,73.96
2019-05-23T08:45:15.297Z,67.19
2019-05-23T08:46:15.479Z,51.24
2019-05-23T08:47:15.648Z,62.84
2019-05-23T08:48:15.856Z,70.09
2019-05-23T08:49:16.055Z,65.90
2019-05-23T08:50:16.166Z,68.16
2019-05-23T08:51:16.345Z,72.67
2019-05-23T08:52:16.519Z,68.00
2019-05-23T08:53:16.744Z,64.78
2019-05-23T08:54:16.933Z,75.09
2019-05-23T08:55:17.222Z,66.71
2019-05-23T08:56:19.522Z,68.96
2019-05-23T08:57:18.512Z,65.10
2019-05-23T08:58:17.660Z,72.51
2019-05-23T08:59:17.861Z,62.20
2019-05-23T09:00:18.044Z,68.96
2019-05-23T09:01:18.233Z,69.61
2019-05-23T09:02:18.404Z,67.35
2019-05-23T09:03:18.677Z,68.64
2019-05-23T09:04:18.778Z,67.51
2019-05-23T09:05:18.950Z,69.93
2019-05-23T09:06:19.205Z,67.51
2019-05-23T09:07:19.316Z,69.13
2019-05-23T09:08:19.388Z,70.90
2019-05-23T09:09:29.654Z,68.96
2019-05-23T09:10:21.756Z,66.87
2019-05-23T09:11:19.941Z,65.26
2019-05-23T09:12:20.105Z,74.28
2019-05-23T09:13:20.310Z,68.64
2019-05-23T09:14:20.490Z,50.11
2019-05-23T09:15:20.711Z,51.40
2019-05-23T09:16:20.894Z,66.71
2019-05-23T09:17:21.095Z,63.49
2019-05-23T09:18:21.321Z,65.74
2019-05-23T09:19:21.539Z,59.94
2019-05-23T09:20:21.742Z,53.33
2019-05-23T09:21:21.978Z,62.36
2019-05-23T09:22:22.094Z,67.35
2019-05-23T09:23:22.190Z,66.23
2019-05-23T09:24:22.548Z,71.54
2019-05-23T09:25:22.520Z,69.77
2019-05-23T09:26:22.726Z,66.23
2019-05-23T09:27:22.928Z,66.39
2019-05-23T09:28:23.156Z,63.00
2019-05-23T09:29:23.387Z,62.20
2019-05-23T09:30:23.623Z,70.09
2019-05-23T09:31:23.820Z,68.64
2019-05-23T09:32:24.020Z,64.13
2019-05-23T09:33:24.215Z,68.48
2019-05-23T09:34:24.421Z,69.13
2019-05-23T09:35:24.612Z,63.97
2019-05-23T09:36:24.802Z,64.45
2019-05-23T09:37:24.971Z,67.35
2019-05-23T09:38:25.177Z,67.51
2019-05-23T09:39:25.337Z,56.07
2019-05-23T09:40:25.527Z,64.29
2019-05-23T09:41:25.728Z,60.42
2019-05-23T09:42:25.879Z,63.33
2019-05-23T09:43:26.036Z,64.61
2019-05-23T09:44:26.200Z,68.64
2019-05-23T09:45:26.368Z,49.47
2019-05-23T09:46:26.570Z,67.84
2019-05-23T09:47:26.759Z,58.97
2019-05-23T09:48:26.903Z,61.71
2019-05-23T09:49:27.056Z,61.23
2019-05-23T09:50:27.226Z,65.74
2019-05-23T09:51:27.418Z,59.78
2019-05-23T09:52:27.644Z,67.19
2019-05-23T09:53:27.860Z,76.05
2019-05-23T09:54:28.030Z,67.19
2019-05-23T09:55:28.189Z,66.06
2019-05-23T09:56:28.382Z,67.68
2019-05-23T09:57:28.543Z,51.24
2019-05-23T09:58:28.708Z,67.19
2019-05-23T09:59:28.885Z,67.68
2019-05-23T10:00:29.077Z,66.55
2019-05-23T10:01:29.317Z,82.98
2019-05-23T10:02:29.398Z,84.27
2019-05-23T10:03:29.603Z,83.79
2019-05-23T10:04:29.786Z,82.34
2019-05-23T10:05:42.116Z,82.66
2019-05-23T10:06:32.113Z,80.24
2019-05-23T10:07:30.245Z,60.91
2019-05-23T10:08:30.436Z,65.58
2019-05-23T10:09:30.604Z,65.58
2019-05-23T10:10:30.812Z,62.04
2019-05-23T10:11:49.797Z,56.88
2019-05-23T10:12:31.086Z,72.51
2019-05-23T10:13:39.054Z,63.00
2019-05-23T10:14:33.370Z,63.16
2019-05-23T10:15:31.499Z,64.78
2019-05-23T10:16:31.681Z,55.27
2019-05-23T10:17:31.872Z,67.68
2019-05-23T10:18:32.090Z,68.48
2019-05-23T10:19:32.147Z,66.06
2019-05-23T10:20:32.309Z,51.72
2019-05-23T10:21:32.622Z,63.16
2019-05-23T10:22:32.729Z,66.23
2019-05-23T10:23:32.894Z,61.39
2019-05-23T10:24:33.069Z,50.76
2019-05-23T10:25:33.214Z,65.26
2019-05-23T10:26:33.374Z,61.71
2019-05-23T10:27:33.615Z,63.00
2019-05-23T10:28:33.786Z,68.00
2019-05-23T10:29:34.018Z,66.55
2019-05-23T10:30:34.197Z,63.49
2019-05-23T10:31:34.463Z,69.29
2019-05-23T10:32:34.561Z,67.51
2019-05-23T10:33:34.766Z,66.71
2019-05-23T10:34:34.966Z,59.30
2019-05-23T10:35:35.168Z,61.55
2019-05-23T10:36:35.401Z,68.32
2019-05-23T10:37:35.703Z,65.74
2019-05-23T10:38:35.806Z,60.75
2019-05-23T10:39:36.000Z,67.51
2019-05-23T10:40:36.185Z,68.32
2019-05-23T10:41:36.410Z,56.72
2019-05-23T10:42:36.527Z,69.77
2019-05-23T10:43:36.742Z,69.13
2019-05-23T10:44:36.950Z,49.79
2019-05-23T10:45:37.173Z,67.19
2019-05-23T10:46:37.262Z,65.26
2019-05-23T10:47:37.483Z,66.71
2019-05-23T10:48:37.713Z,71.38
2019-05-23T10:49:37.902Z,53.66
2019-05-23T10:50:44.874Z,66.87
2019-05-23T10:51:40.303Z,64.61
2019-05-23T10:52:38.620Z,66.39
2019-05-23T10:53:38.674Z,59.78
2019-05-23T10:54:38.873Z,67.84
2019-05-23T10:55:39.027Z,78.47
2019-05-23T10:56:39.213Z,67.03
2019-05-23T10:57:39.371Z,66.23
2019-05-23T10:58:39.569Z,51.24
2019-05-23T10:59:39.721Z,61.55
2019-05-23T11:00:39.883Z,61.71
2019-05-23T11:01:40.040Z,60.59
2019-05-23T11:02:40.188Z,67.51
2019-05-23T11:03:40.369Z,64.29
2019-05-23T11:04:40.579Z,72.51
2019-05-23T11:05:40.747Z,61.87
2019-05-23T11:06:40.905Z,70.90
2019-05-23T11:07:41.094Z,59.94
2019-05-23T11:08:41.303Z,69.13
2019-05-23T11:09:41.476Z,59.30
2019-05-23T11:10:41.647Z,69.77
2019-05-23T11:11:41.882Z,72.35
2019-05-23T11:12:41.963Z,60.26
2019-05-23T11:13:42.136Z,70.90
2019-05-23T11:14:42.319Z,60.75
2019-05-23T11:15:42.530Z,64.61
2019-05-23T11:16:42.709Z,64.29
2019-05-23T11:17:43.001Z,64.13
2019-05-23T11:18:43.113Z,63.16
2019-05-23T11:19:43.300Z,65.74
2019-05-23T11:20:43.519Z,66.71
2019-05-23T11:21:43.710Z,63.49
2019-05-23T11:22:43.924Z,54.46
2019-05-23T11:23:44.101Z,75.73
2019-05-23T11:24:44.311Z,59.62
2019-05-23T11:25:44.496Z,66.71
2019-05-23T11:26:44.663Z,51.88
2019-05-23T11:27:44.847Z,64.13
2019-05-23T11:28:45.044Z,54.30
2019-05-23T11:29:45.228Z,62.36
2019-05-23T11:30:45.404Z,62.84
2019-05-23T11:31:45.542Z,64.29
2019-05-23T11:32:45.731Z,65.74
2019-05-23T11:33:45.915Z,70.09
2019-05-23T11:34:46.074Z,67.03
2019-05-23T11:35:47.292Z,70.74
2019-05-23T11:36:46.495Z,67.84
2019-05-23T11:37:46.641Z,72.83
2019-05-23T11:38:46.823Z,62.68
2019-05-23T11:39:49.468Z,66.39
2019-05-23T11:40:48.221Z,65.90
2019-05-23T11:41:47.366Z,61.71
2019-05-23T11:42:47.523Z,68.96
2019-05-23T11:43:47.678Z,59.78
2019-05-23T11:44:47.849Z,66.23
2019-05-23T11:45:48.031Z,67.35
2019-05-23T11:46:48.222Z,65.58
2019-05-23T11:47:48.381Z,62.04
2019-05-23T11:48:48.564Z,55.75
2019-05-23T11:49:48.769Z,65.26
2019-05-23T11:50:48.891Z,67.84
2019-05-23T11:51:49.044Z,69.45
2019-05-23T11:52:49.195Z,62.20
2019-05-23T11:54:05.852Z,67.35
2019-05-23T11:54:51.520Z,74.60
2019-05-23T11:55:54.054Z,69.77
2019-05-23T11:56:50.768Z,64.13
2019-05-23T11:57:49.924Z,72.51
2019-05-23T11:58:50.156Z,52.85
2019-05-23T11:59:50.323Z,66.71
2019-05-23T12:00:50.512Z,55.43
2019-05-23T12:01:50.639Z,69.45
2019-05-23T12:02:50.828Z,67.84
2019-05-23T12:03:51.023Z,75.57
2019-05-23T12:04:51.224Z,69.13
2019-05-23T12:05:51.325Z,67.19
2019-05-23T12:06:55.840Z,70.09
2019-05-23T12:07:53.688Z,58.01
2019-05-23T12:08:51.879Z,66.87
2019-05-23T12:09:52.060Z,69.93
2019-05-23T12:10:52.274Z,67.19
2019-05-23T12:11:52.489Z,66.06
2019-05-23T12:12:52.575Z,61.39
2019-05-23T12:13:52.767Z,65.10
2019-05-23T12:14:52.950Z,67.35
2019-05-23T12:15:53.122Z,70.09
2019-05-23T12:16:53.303Z,68.64
2019-05-23T12:17:53.402Z,66.87
2019-05-23T12:18:53.594Z,67.03
2019-05-23T12:19:53.806Z,71.70
2019-05-23T12:20:53.996Z,68.32
2019-05-23T12:21:54.201Z,61.87
2019-05-23T12:22:54.461Z,67.68
2019-05-23T12:23:54.584Z,58.49
2019-05-23T12:24:54.786Z,67.19
2019-05-23T12:25:55.991Z,66.87
2019-05-23T12:26:55.206Z,73.15
2019-05-23T12:27:55.312Z,66.55
2019-05-23T12:28:55.494Z,73.64
2019-05-23T12:29:55.678Z,69.13
2019-05-23T12:30:55.830Z,69.29
2019-05-23T12:31:56.026Z,63.97
2019-05-23T12:32:56.224Z,65.58
2019-05-23T12:33:56.292Z,65.10
2019-05-23T12:35:09.736Z,64.94
2019-05-23T12:35:58.580Z,68.32
2019-05-23T12:37:17.276Z,64.45
2019-05-23T12:38:02.149Z,70.58
2019-05-23T12:38:57.007Z,67.03
2019-05-23T12:39:57.165Z,65.90
2019-05-23T12:40:57.405Z,76.05
2019-05-23T12:41:57.566Z,65.58
2019-05-23T12:42:57.723Z,65.26
2019-05-23T12:43:57.894Z,68.32
2019-05-23T12:44:58.070Z,63.81
2019-05-23T12:45:58.272Z,69.61
2019-05-23T12:46:58.406Z,70.42
2019-05-23T12:47:58.594Z,63.97
2019-05-23T12:48:58.790Z,66.23
2019-05-23T12:49:58.950Z,61.07
2019-05-23T12:50:59.134Z,66.55
2019-05-23T12:51:59.313Z,67.84
2019-05-23T12:52:59.467Z,65.90
2019-05-23T12:53:59.681Z,68.32
2019-05-23T12:54:59.870Z,67.19